Portada
METAR-TAF:

METAR-TAF

Aeroports :

Iranshahr, Iran

latitud: 27-12N, longitud: 060-42E, altitud: 591 m

Observació

L'informe es va fer fa 53 minuts, a les 11:00 UTC
Vent 6 kt del Sud-Oest
Temperatura 22°C
Humitat 60%
Pressió 1013 hPa
Visibilitat 10 km o més
Núvols disperses a una alçada de 4000 ft, Cumulus congestus.
Cel ennuvolat a una alçada de 10000 ft

METAR: OIZI 211100Z 22006KT 9999 SCT040TCU BKN100 22/14 Q1013

Hora: 15:23 (11:53 UTC)


TAF: manca

Observacions i pronòstics meteorològics de més de 4000 aeroports (METAR i TAF).

Les estacions disponibles són els punts grocs i vermells al mapa.

Posi el ratolí al punt desitjat per veure el nom de l'estació.

Feu clic per veure les observacions i els pronòstics meteorològics.

Per canviar el mapa: feu clic els botons verds amb una creu de color negre per apropar; al botó verd amb un guió per allunyar la imatge; o en les fletxes verdes per a mapes adjacents.


METAR-TAF: